createdAt,value
2019-03-26T00:01:56.194Z,2.60
2019-03-26T00:04:23.578Z,2.87
2019-03-26T00:06:51.002Z,2.70
2019-03-26T00:09:18.432Z,2.57
2019-03-26T00:11:45.844Z,2.43
2019-03-26T00:14:13.274Z,2.77
2019-03-26T00:16:40.714Z,2.60
2019-03-26T00:19:08.217Z,2.17
2019-03-26T00:21:35.663Z,2.47
2019-03-26T00:24:03.523Z,2.37
2019-03-26T00:26:31.183Z,2.53
2019-03-26T00:28:58.597Z,2.67
2019-03-26T00:31:26.212Z,2.90
2019-03-26T00:33:53.911Z,2.20
2019-03-26T00:36:21.415Z,2.67
2019-03-26T00:38:49.030Z,2.80
2019-03-26T00:41:16.651Z,3.00
2019-03-26T00:43:44.332Z,3.20
2019-03-26T00:46:12.131Z,3.37
2019-03-26T00:48:39.850Z,3.43
2019-03-26T00:51:07.268Z,2.70
2019-03-26T00:53:34.653Z,2.63
2019-03-26T00:56:02.060Z,3.13
2019-03-26T00:58:29.468Z,3.37
2019-03-26T01:00:56.919Z,3.03
2019-03-26T01:03:24.546Z,2.90
2019-03-26T01:05:52.097Z,2.27
2019-03-26T01:08:19.616Z,2.60
2019-03-26T01:10:47.228Z,3.00
2019-03-26T01:13:14.777Z,2.60
2019-03-26T01:15:42.166Z,2.30
2019-03-26T01:18:09.657Z,2.07
2019-03-26T01:20:37.157Z,2.70
2019-03-26T01:23:04.575Z,2.00
2019-03-26T01:25:32.239Z,2.67
2019-03-26T01:27:59.786Z,2.50
2019-03-26T01:30:27.179Z,2.50
2019-03-26T01:32:54.605Z,2.23
2019-03-26T01:35:22.293Z,2.80
2019-03-26T01:37:49.816Z,2.40
2019-03-26T01:40:17.503Z,2.13
2019-03-26T01:42:44.937Z,2.50
2019-03-26T01:45:12.329Z,2.93
2019-03-26T01:47:39.762Z,2.40
2019-03-26T01:50:07.483Z,2.40
2019-03-26T01:52:34.931Z,2.47
2019-03-26T01:55:02.591Z,2.40
2019-03-26T01:57:30.125Z,2.00
2019-03-26T01:59:57.896Z,2.10
2019-03-26T02:02:26.296Z,2.10
2019-03-26T02:04:59.915Z,2.40
2019-03-26T02:07:23.121Z,2.43
2019-03-26T02:09:50.914Z,2.57
2019-03-26T02:12:18.457Z,2.30
2019-03-26T02:14:45.883Z,2.60
2019-03-26T02:17:13.439Z,2.97
2019-03-26T02:19:40.863Z,2.40
2019-03-26T02:22:08.243Z,2.10
2019-03-26T02:24:35.652Z,2.90
2019-03-26T02:27:03.141Z,2.43
2019-03-26T02:29:30.604Z,1.97
2019-03-26T02:31:58.228Z,2.47
2019-03-26T02:34:25.783Z,2.70
2019-03-26T02:36:53.310Z,2.30
2019-03-26T02:39:20.811Z,2.07
2019-03-26T02:41:48.234Z,2.03
2019-03-26T02:44:15.675Z,2.20
2019-03-26T02:46:43.074Z,2.10
2019-03-26T02:49:10.570Z,1.90
2019-03-26T02:51:38.249Z,2.57
2019-03-26T02:54:05.793Z,1.90
2019-03-26T02:56:33.307Z,2.10
2019-03-26T02:59:00.704Z,1.93
2019-03-26T03:01:28.673Z,2.60
2019-03-26T03:03:56.326Z,2.57
2019-03-26T03:06:23.719Z,2.33
2019-03-26T03:08:51.156Z,2.27
2019-03-26T03:11:18.627Z,2.47
2019-03-26T03:13:46.033Z,2.10
2019-03-26T03:16:13.840Z,2.13
2019-03-26T03:18:41.246Z,2.00
2019-03-26T03:21:09.002Z,2.60
2019-03-26T03:23:36.521Z,3.53
2019-03-26T03:26:04.018Z,2.60
2019-03-26T03:28:32.691Z,2.30
2019-03-26T03:31:00.209Z,2.57
2019-03-26T03:33:27.918Z,2.33
2019-03-26T03:35:55.333Z,2.67
2019-03-26T03:38:23.019Z,2.50
2019-03-26T03:40:50.682Z,2.17
2019-03-26T03:43:18.382Z,2.37
2019-03-26T03:45:47.301Z,2.23
2019-03-26T03:48:15.001Z,2.00
2019-03-26T03:50:43.412Z,2.50
2019-03-26T03:53:15.327Z,2.50
2019-03-26T03:55:42.930Z,2.10
2019-03-26T03:58:10.413Z,2.23
2019-03-26T04:00:38.950Z,2.50
2019-03-26T04:03:07.610Z,2.97
2019-03-26T04:05:35.601Z,2.20
2019-03-26T04:08:03.293Z,2.77
2019-03-26T04:10:30.765Z,2.90
2019-03-26T04:12:58.647Z,2.47
2019-03-26T04:15:26.075Z,2.23
2019-03-26T04:17:53.515Z,2.50
2019-03-26T04:20:21.021Z,2.20
2019-03-26T04:22:48.445Z,2.33
2019-03-26T04:25:15.837Z,2.30
2019-03-26T04:27:44.350Z,2.80
2019-03-26T04:30:16.748Z,2.40
2019-03-26T04:32:44.158Z,2.30
2019-03-26T04:35:11.561Z,2.63
2019-03-26T04:37:39.054Z,2.30
2019-03-26T04:40:06.961Z,2.47
2019-03-26T04:42:34.752Z,2.23
2019-03-26T04:45:02.632Z,2.87
2019-03-26T04:47:30.305Z,2.33
2019-03-26T04:49:57.958Z,2.40
2019-03-26T04:52:25.551Z,1.80
2019-03-26T04:54:53.235Z,2.33
2019-03-26T04:57:21.077Z,2.70
2019-03-26T04:59:48.636Z,2.53
2019-03-26T05:02:16.288Z,1.90
2019-03-26T05:04:43.975Z,2.13
2019-03-26T05:07:11.537Z,2.20
2019-03-26T05:09:39.206Z,2.27
2019-03-26T05:12:07.003Z,2.23
2019-03-26T05:14:34.577Z,2.37
2019-03-26T05:17:02.234Z,2.33
2019-03-26T05:19:30.206Z,2.20
2019-03-26T05:21:57.769Z,2.63
2019-03-26T05:24:25.546Z,1.90
2019-03-26T05:26:53.247Z,2.80
2019-03-26T05:29:21.014Z,2.67
2019-03-26T05:31:48.768Z,2.40
2019-03-26T05:34:16.785Z,2.40
2019-03-26T05:36:51.133Z,1.90
2019-03-26T05:39:14.338Z,2.30
2019-03-26T05:41:41.901Z,2.10
2019-03-26T05:44:09.498Z,2.47
2019-03-26T05:46:37.253Z,2.60
2019-03-26T05:49:04.933Z,2.60
2019-03-26T05:51:32.636Z,2.70
2019-03-26T05:54:00.344Z,2.47
2019-03-26T05:56:30.508Z,2.40
2019-03-26T05:58:57.798Z,3.23
2019-03-26T06:01:25.630Z,2.80
2019-03-26T06:03:53.233Z,2.63
2019-03-26T06:06:20.999Z,2.80
2019-03-26T06:08:48.578Z,2.43
2019-03-26T06:11:16.301Z,2.80
2019-03-26T06:13:43.925Z,2.53
2019-03-26T06:16:11.575Z,2.90
2019-03-26T06:18:39.422Z,3.50
2019-03-26T06:21:07.069Z,4.20
2019-03-26T06:23:34.981Z,2.50
2019-03-26T06:26:03.107Z,3.07
2019-03-26T06:28:30.873Z,2.90
2019-03-26T06:30:58.856Z,3.13
2019-03-26T06:33:26.590Z,3.67
2019-03-26T06:35:54.354Z,3.93
2019-03-26T06:38:21.950Z,2.30
2019-03-26T06:40:49.699Z,2.83
2019-03-26T06:43:17.501Z,2.60
2019-03-26T06:45:45.220Z,2.23
2019-03-26T06:48:12.963Z,2.60
2019-03-26T06:50:41.556Z,2.57
2019-03-26T06:53:09.138Z,2.83
2019-03-26T06:55:36.826Z,3.47
2019-03-26T06:58:04.579Z,3.23
2019-03-26T07:00:32.602Z,3.63
2019-03-26T07:03:01.626Z,3.20
2019-03-26T07:05:29.306Z,2.60
2019-03-26T07:07:57.008Z,2.57
2019-03-26T07:10:26.770Z,2.40
2019-03-26T07:12:54.447Z,2.87
2019-03-26T07:15:23.229Z,2.97
2019-03-26T07:17:52.402Z,2.73
2019-03-26T07:20:20.548Z,2.80
2019-03-26T07:22:48.392Z,3.17
2019-03-26T07:25:16.227Z,2.40
2019-03-26T07:27:43.970Z,2.37
2019-03-26T07:30:16.835Z,2.83
2019-03-26T07:32:44.458Z,2.80
2019-03-26T07:35:12.215Z,2.70
2019-03-26T07:37:45.411Z,2.77
2019-03-26T07:40:10.099Z,3.20
2019-03-26T07:42:37.715Z,2.67
2019-03-26T07:45:06.627Z,2.63
2019-03-26T07:47:34.343Z,2.50
2019-03-26T07:50:01.984Z,2.60
2019-03-26T07:52:29.666Z,2.97
2019-03-26T07:54:57.204Z,2.60
2019-03-26T07:57:24.966Z,3.13
2019-03-26T07:59:52.763Z,2.87
2019-03-26T08:02:20.526Z,3.07
2019-03-26T08:04:48.346Z,2.73
2019-03-26T08:07:16.026Z,3.20
2019-03-26T08:09:43.770Z,3.10
2019-03-26T08:12:11.406Z,2.90
2019-03-26T08:14:39.023Z,2.27
2019-03-26T08:17:06.948Z,3.27
2019-03-26T08:19:34.679Z,2.47
2019-03-26T08:22:02.410Z,2.40
2019-03-26T08:24:30.072Z,2.37
2019-03-26T08:26:57.802Z,2.77
2019-03-26T08:29:25.431Z,2.17
2019-03-26T08:31:53.282Z,2.70
2019-03-26T08:34:21.114Z,2.43
2019-03-26T08:36:48.692Z,2.13
2019-03-26T08:39:16.565Z,2.53
2019-03-26T08:41:44.195Z,2.70
2019-03-26T08:44:11.959Z,2.17
2019-03-26T08:46:39.549Z,2.30
2019-03-26T08:49:07.329Z,2.50
2019-03-26T08:51:34.891Z,2.67
2019-03-26T08:54:02.643Z,2.67
2019-03-26T08:56:30.374Z,2.90
2019-03-26T08:58:58.352Z,2.43
2019-03-26T09:01:26.353Z,2.80
2019-03-26T09:03:54.213Z,2.47
2019-03-26T09:06:21.898Z,2.30
2019-03-26T09:08:49.510Z,2.23
2019-03-26T09:11:17.449Z,2.47
2019-03-26T09:13:45.069Z,2.67
2019-03-26T09:16:12.860Z,3.17
2019-03-26T09:18:40.662Z,2.80
2019-03-26T09:21:08.402Z,2.57
2019-03-26T09:23:36.005Z,2.43
2019-03-26T09:26:03.723Z,2.17
2019-03-26T09:28:31.337Z,2.97
2019-03-26T09:30:59.010Z,2.70
2019-03-26T09:33:26.678Z,2.60
2019-03-26T09:35:54.438Z,2.80
2019-03-26T09:38:22.205Z,2.30
2019-03-26T09:40:49.750Z,2.27
2019-03-26T09:43:17.387Z,2.60
2019-03-26T09:45:45.005Z,2.73
2019-03-26T09:48:12.767Z,2.70
2019-03-26T09:50:40.433Z,2.67
2019-03-26T09:53:08.193Z,2.70
2019-03-26T09:55:35.967Z,2.57
2019-03-26T09:58:03.789Z,2.67
2019-03-26T10:00:31.526Z,2.40
2019-03-26T10:02:59.392Z,2.07
2019-03-26T10:05:27.357Z,2.10
2019-03-26T10:07:55.195Z,2.33
2019-03-26T10:10:23.007Z,2.20
2019-03-26T10:12:50.664Z,2.30
2019-03-26T10:15:18.463Z,2.10
2019-03-26T10:17:46.100Z,2.43
2019-03-26T10:20:13.959Z,2.57
2019-03-26T10:22:41.614Z,2.60
2019-03-26T10:25:11.289Z,2.90
2019-03-26T10:27:39.041Z,2.43
2019-03-26T10:30:08.924Z,2.23
2019-03-26T10:32:37.138Z,2.87
2019-03-26T10:35:05.289Z,2.27
2019-03-26T10:37:32.990Z,2.70
2019-03-26T10:40:01.437Z,2.73
2019-03-26T10:42:29.550Z,2.50
2019-03-26T10:44:56.977Z,2.50
2019-03-26T10:47:24.402Z,2.90
2019-03-26T10:49:51.846Z,2.40
2019-03-26T10:52:19.249Z,2.80
2019-03-26T10:54:46.680Z,2.80
2019-03-26T10:57:14.108Z,2.10
2019-03-26T10:59:41.506Z,2.30
2019-03-26T11:02:09.002Z,2.90
2019-03-26T11:04:36.558Z,2.23
2019-03-26T11:07:04.234Z,2.30
2019-03-26T11:09:33.140Z,2.20
2019-03-26T11:12:01.068Z,2.70
2019-03-26T11:14:31.600Z,2.20
2019-03-26T11:16:58.350Z,2.30
2019-03-26T11:19:26.090Z,2.40
2019-03-26T11:21:53.830Z,2.40
2019-03-26T11:24:21.453Z,1.90
2019-03-26T11:26:48.993Z,2.43
2019-03-26T11:29:16.889Z,2.00
2019-03-26T11:31:44.666Z,1.90
2019-03-26T11:34:12.439Z,2.50
2019-03-26T11:36:40.310Z,2.43
2019-03-26T11:39:08.208Z,2.50
2019-03-26T11:41:36.008Z,2.33
2019-03-26T11:44:04.810Z,3.13
2019-03-26T11:46:32.850Z,2.50
2019-03-26T11:49:00.405Z,2.20
2019-03-26T11:51:28.174Z,2.20
2019-03-26T11:53:55.851Z,2.30
2019-03-26T11:56:23.413Z,2.00
2019-03-26T11:58:51.067Z,2.23
2019-03-26T12:01:18.573Z,2.03
2019-03-26T12:03:46.169Z,2.70
2019-03-26T12:06:13.822Z,2.03
2019-03-26T12:08:41.530Z,2.70
2019-03-26T12:11:09.272Z,2.47
2019-03-26T12:13:36.994Z,2.57
2019-03-26T12:16:04.762Z,2.40
2019-03-26T12:18:32.598Z,2.20
2019-03-26T12:21:00.344Z,2.60
2019-03-26T12:23:27.911Z,2.37
2019-03-26T12:25:55.746Z,1.90
2019-03-26T12:28:23.343Z,2.10
2019-03-26T12:30:51.094Z,2.30
2019-03-26T12:33:18.785Z,2.37
2019-03-26T12:35:46.531Z,2.10
2019-03-26T12:38:18.601Z,2.63
2019-03-26T12:40:46.506Z,2.27
2019-03-26T12:43:14.345Z,2.60
2019-03-26T12:45:42.192Z,2.27
2019-03-26T12:48:09.787Z,2.37
2019-03-26T12:50:37.281Z,2.87
2019-03-26T12:53:05.091Z,2.43
2019-03-26T12:55:32.654Z,2.97
2019-03-26T12:58:00.316Z,2.50
2019-03-26T13:00:31.633Z,2.60
2019-03-26T13:02:59.389Z,3.00
2019-03-26T13:05:28.136Z,2.20
2019-03-26T13:07:55.843Z,2.70
2019-03-26T13:10:23.630Z,2.90
2019-03-26T13:12:51.469Z,2.40
2019-03-26T13:15:19.074Z,2.13
2019-03-26T13:17:46.838Z,2.50
2019-03-26T13:20:14.678Z,3.43
2019-03-26T13:22:42.485Z,2.47
2019-03-26T13:25:10.342Z,2.80
2019-03-26T13:27:37.927Z,2.60
2019-03-26T13:30:06.819Z,2.50
2019-03-26T13:32:34.562Z,2.57
2019-03-26T13:35:02.483Z,3.00
2019-03-26T13:37:30.181Z,2.57
2019-03-26T13:39:57.878Z,3.03
2019-03-26T13:42:25.587Z,2.97
2019-03-26T13:44:53.171Z,2.60
2019-03-26T13:47:20.841Z,3.10
2019-03-26T13:49:48.482Z,2.83
2019-03-26T13:52:16.214Z,3.20
2019-03-26T13:54:43.819Z,3.40
2019-03-26T13:57:11.402Z,3.10
2019-03-26T13:59:39.047Z,3.37
2019-03-26T14:02:07.119Z,3.00
2019-03-26T14:04:34.725Z,3.00
2019-03-26T14:07:02.363Z,3.33
2019-03-26T14:09:30.040Z,3.40
2019-03-26T14:11:57.866Z,3.33
2019-03-26T14:14:25.473Z,3.07
2019-03-26T14:16:53.218Z,2.87
2019-03-26T14:19:20.806Z,3.60
2019-03-26T14:21:48.781Z,3.33
2019-03-26T14:24:16.568Z,3.43
2019-03-26T14:26:44.111Z,3.23
2019-03-26T14:29:11.838Z,3.57
2019-03-26T14:31:39.593Z,2.60
2019-03-26T14:34:07.180Z,2.57
2019-03-26T14:36:34.878Z,2.50
2019-03-26T14:39:04.675Z,2.33
2019-03-26T14:41:32.700Z,2.60
2019-03-26T14:44:00.559Z,2.60
2019-03-26T14:46:28.147Z,2.73
2019-03-26T14:48:55.914Z,2.53
2019-03-26T14:51:23.668Z,2.67
2019-03-26T14:53:51.933Z,2.87
2019-03-26T14:56:19.613Z,2.63
2019-03-26T14:58:47.420Z,3.17
2019-03-26T15:01:15.223Z,2.57
2019-03-26T15:03:42.981Z,2.73
2019-03-26T15:06:10.956Z,2.67
2019-03-26T15:08:38.691Z,2.53
2019-03-26T15:11:08.374Z,2.50
2019-03-26T15:13:36.835Z,2.67
2019-03-26T15:16:04.603Z,2.53
2019-03-26T15:18:32.202Z,2.50
2019-03-26T15:20:59.891Z,3.13
2019-03-26T15:23:27.754Z,3.10
2019-03-26T15:25:55.795Z,2.80
2019-03-26T15:28:23.571Z,2.57
2019-03-26T15:30:51.439Z,2.63
2019-03-26T15:33:19.145Z,3.57
2019-03-26T15:35:47.679Z,2.80
2019-03-26T15:38:15.450Z,2.87
2019-03-26T15:40:43.134Z,2.57
2019-03-26T15:43:10.931Z,2.70
2019-03-26T15:45:38.511Z,3.00
2019-03-26T15:48:06.934Z,2.83
2019-03-26T15:50:37.402Z,2.03
2019-03-26T15:53:05.098Z,2.17
2019-03-26T15:55:33.153Z,2.30
2019-03-26T15:58:00.923Z,2.77
2019-03-26T16:00:29.429Z,2.40
2019-03-26T16:02:57.227Z,2.63
2019-03-26T16:05:25.992Z,2.40
2019-03-26T16:07:53.646Z,3.00
2019-03-26T16:10:21.327Z,2.97
2019-03-26T16:12:48.962Z,3.00
2019-03-26T16:15:16.630Z,2.70
2019-03-26T16:17:44.354Z,2.70
2019-03-26T16:20:12.387Z,3.60
2019-03-26T16:22:39.947Z,3.03
2019-03-26T16:25:08.286Z,2.50
2019-03-26T16:27:36.013Z,2.70
2019-03-26T16:30:04.103Z,2.93
2019-03-26T16:32:31.835Z,3.03
2019-03-26T16:34:59.643Z,2.50
2019-03-26T16:37:27.354Z,2.47
2019-03-26T16:39:54.913Z,2.70
2019-03-26T16:42:22.398Z,2.80
2019-03-26T16:44:49.899Z,2.60
2019-03-26T16:47:17.562Z,2.03
2019-03-26T16:49:45.056Z,2.37
2019-03-26T16:52:12.738Z,2.50
2019-03-26T16:54:40.379Z,3.90
2019-03-26T16:57:08.241Z,3.13
2019-03-26T16:59:35.754Z,2.27
2019-03-26T17:02:04.393Z,2.57
2019-03-26T17:04:31.811Z,3.07
2019-03-26T17:06:59.253Z,3.67
2019-03-26T17:09:26.834Z,3.40
2019-03-26T17:12:02.974Z,3.70
2019-03-26T17:14:24.014Z,3.10
2019-03-26T17:16:51.503Z,3.40
2019-03-26T17:19:18.913Z,3.33
2019-03-26T17:21:46.353Z,3.00
2019-03-26T17:24:14.017Z,2.30
2019-03-26T17:26:41.790Z,3.40
2019-03-26T17:29:09.273Z,3.10
2019-03-26T17:31:36.874Z,2.67
2019-03-26T17:34:04.458Z,3.03
2019-03-26T17:36:31.934Z,3.87
2019-03-26T17:38:59.408Z,3.07
2019-03-26T17:41:27.089Z,3.30
2019-03-26T17:43:54.652Z,4.07
2019-03-26T17:46:22.089Z,2.93
2019-03-26T17:48:49.625Z,2.63
2019-03-26T17:51:17.196Z,3.23
2019-03-26T17:53:44.642Z,2.43
2019-03-26T17:56:12.306Z,2.27
2019-03-26T17:58:39.770Z,2.73
2019-03-26T18:01:07.303Z,3.57
2019-03-26T18:03:34.838Z,2.63
2019-03-26T18:06:02.369Z,2.60
2019-03-26T18:08:30.362Z,2.60
2019-03-26T18:10:58.842Z,3.13
2019-03-26T18:13:26.464Z,2.57
2019-03-26T18:15:54.033Z,3.50
2019-03-26T18:18:21.498Z,2.77
2019-03-26T18:20:49.151Z,2.70
2019-03-26T18:23:16.673Z,2.90
2019-03-26T18:25:44.056Z,3.23
2019-03-26T18:28:12.486Z,2.93
2019-03-26T18:30:41.207Z,3.10
2019-03-26T18:33:08.646Z,2.93
2019-03-26T18:35:36.408Z,3.20
2019-03-26T18:38:04.224Z,3.10
2019-03-26T18:40:31.869Z,3.20
2019-03-26T18:42:59.508Z,3.10
2019-03-26T18:45:27.111Z,3.53
2019-03-26T18:47:54.760Z,2.50
2019-03-26T18:50:22.416Z,3.03
2019-03-26T18:52:50.018Z,3.27
2019-03-26T18:55:17.722Z,2.93
2019-03-26T18:57:45.784Z,3.40
2019-03-26T19:00:14.205Z,3.07
2019-03-26T19:02:42.810Z,3.27
2019-03-26T19:05:10.645Z,3.13
2019-03-26T19:07:38.479Z,3.70
2019-03-26T19:10:13.635Z,3.37
2019-03-26T19:12:41.206Z,3.40
2019-03-26T19:15:11.745Z,3.60
2019-03-26T19:17:39.378Z,3.43
2019-03-26T19:20:07.148Z,3.53
2019-03-26T19:22:34.753Z,3.40
2019-03-26T19:25:02.702Z,4.27
2019-03-26T19:27:31.673Z,5.20
2019-03-26T19:29:59.359Z,3.83
2019-03-26T19:32:27.213Z,4.00
2019-03-26T19:34:55.050Z,3.40
2019-03-26T19:37:22.634Z,3.87
2019-03-26T19:39:50.299Z,4.10
2019-03-26T19:42:17.846Z,5.03
2019-03-26T19:44:45.499Z,4.07
2019-03-26T19:47:13.099Z,4.00
2019-03-26T19:49:40.865Z,5.30
2019-03-26T19:52:08.784Z,4.57
2019-03-26T19:54:36.580Z,4.57
2019-03-26T19:57:04.247Z,4.63
2019-03-26T19:59:32.147Z,4.40
2019-03-26T20:01:59.945Z,4.33
2019-03-26T20:04:27.917Z,4.17
2019-03-26T20:06:55.683Z,5.07
2019-03-26T20:09:23.554Z,4.53
2019-03-26T20:11:51.100Z,5.07
2019-03-26T20:14:18.524Z,4.43
2019-03-26T20:16:46.082Z,4.90
2019-03-26T20:19:13.726Z,4.70
2019-03-26T20:21:41.374Z,4.30
2019-03-26T20:24:08.959Z,4.83
2019-03-26T20:26:36.432Z,4.97
2019-03-26T20:29:04.100Z,4.60
2019-03-26T20:31:31.655Z,4.57
2019-03-26T20:33:59.469Z,5.07
2019-03-26T20:36:27.043Z,5.43
2019-03-26T20:38:54.775Z,4.50
2019-03-26T20:41:22.459Z,4.90
2019-03-26T20:43:50.037Z,6.20
2019-03-26T20:46:17.805Z,5.93
2019-03-26T20:48:45.373Z,4.97
2019-03-26T20:51:13.035Z,5.80
2019-03-26T20:53:40.892Z,5.60
2019-03-26T20:56:08.678Z,5.20
2019-03-26T20:58:36.700Z,5.07
2019-03-26T21:01:04.483Z,5.50
2019-03-26T21:03:32.223Z,5.73
2019-03-26T21:05:59.910Z,5.23
2019-03-26T21:08:27.501Z,5.30
2019-03-26T21:10:55.221Z,5.47
2019-03-26T21:13:22.862Z,5.40
2019-03-26T21:15:57.114Z,5.47
2019-03-26T21:18:20.295Z,5.80
2019-03-26T21:20:47.990Z,5.57
2019-03-26T21:23:15.910Z,5.73
2019-03-26T21:25:43.711Z,6.00
2019-03-26T21:28:11.353Z,5.40
2019-03-26T21:30:39.406Z,5.43
2019-03-26T21:33:07.278Z,5.63
2019-03-26T21:35:35.087Z,5.23
2019-03-26T21:38:02.884Z,5.87
2019-03-26T21:40:30.640Z,5.17
2019-03-26T21:42:58.405Z,5.20
2019-03-26T21:45:33.824Z,5.20
2019-03-26T21:48:01.824Z,5.73
2019-03-26T21:50:29.679Z,5.10
2019-03-26T21:52:57.295Z,5.57
2019-03-26T21:55:24.960Z,6.67
2019-03-26T21:57:52.668Z,6.13
2019-03-26T22:00:20.578Z,6.33
2019-03-26T22:02:48.345Z,5.77
2019-03-26T22:05:16.218Z,5.57
2019-03-26T22:07:44.067Z,5.93
2019-03-26T22:10:12.115Z,7.30
2019-03-26T22:12:39.666Z,5.97
2019-03-26T22:15:07.954Z,5.73
2019-03-26T22:17:35.517Z,6.00
2019-03-26T22:20:03.897Z,5.17
2019-03-26T22:22:31.681Z,5.73
2019-03-26T22:24:59.530Z,5.97
2019-03-26T22:27:27.418Z,6.33
2019-03-26T22:29:55.481Z,5.70
2019-03-26T22:32:23.377Z,5.73
2019-03-26T22:34:51.007Z,5.13
2019-03-26T22:37:18.798Z,6.00
2019-03-26T22:39:46.614Z,5.50
2019-03-26T22:42:14.230Z,5.83
2019-03-26T22:44:41.938Z,6.30
2019-03-26T22:47:09.490Z,5.63
2019-03-26T22:49:38.119Z,6.30
2019-03-26T22:52:06.033Z,6.77
2019-03-26T22:54:34.595Z,6.10
2019-03-26T22:57:02.167Z,5.87
2019-03-26T22:59:29.994Z,6.67
2019-03-26T23:01:57.611Z,7.13
2019-03-26T23:04:25.215Z,6.20
2019-03-26T23:06:52.834Z,5.70
2019-03-26T23:09:20.446Z,7.87
2019-03-26T23:11:48.087Z,6.23
2019-03-26T23:14:16.056Z,5.83
2019-03-26T23:16:44.213Z,6.13
2019-03-26T23:19:11.990Z,6.33
2019-03-26T23:21:39.658Z,6.50
2019-03-26T23:24:07.422Z,5.90
2019-03-26T23:26:35.299Z,6.47
2019-03-26T23:29:03.066Z,6.57
2019-03-26T23:31:30.910Z,6.10
2019-03-26T23:33:58.774Z,6.57
2019-03-26T23:36:26.433Z,6.13
2019-03-26T23:38:54.224Z,5.40
2019-03-26T23:41:21.865Z,6.50
2019-03-26T23:43:49.266Z,6.00
2019-03-26T23:46:16.731Z,6.30
2019-03-26T23:48:44.137Z,6.43
2019-03-26T23:51:11.631Z,6.27
2019-03-26T23:53:39.175Z,7.17
2019-03-26T23:56:07.617Z,6.43
2019-03-26T23:58:35.294Z,7.17
